createdAt,value
2022-08-07T12:28:49.583Z,28.30
2022-08-07T12:31:24.635Z,26.70
2022-08-07T12:34:00.858Z,28.40
2022-08-07T12:36:33.342Z,29.60
2022-08-07T12:39:42.062Z,29.50
2022-08-07T12:41:53.704Z,29.50
2022-08-07T12:44:21.664Z,29.40
2022-08-07T12:47:21.922Z,28.10
2022-08-07T12:50:39.592Z,29.70
2022-08-07T12:54:02.794Z,30.00
2022-08-07T12:56:39.549Z,31.60
2022-08-07T12:59:08.649Z,31.60
2022-08-07T13:02:09.885Z,31.90
2022-08-07T13:05:14.879Z,29.70
2022-08-07T13:08:32.281Z,26.80
2022-08-07T13:11:24.611Z,27.80
2022-08-07T13:14:10.470Z,28.40
2022-08-07T13:17:02.297Z,28.50
2022-08-07T13:19:50.611Z,28.30
2022-08-07T13:22:34.374Z,29.00
2022-08-07T13:25:15.409Z,29.20
2022-08-07T13:28:11.206Z,29.10
2022-08-07T13:30:49.018Z,29.40
2022-08-07T13:34:14.758Z,29.20
2022-08-07T13:36:40.426Z,27.20
2022-08-07T13:40:32.818Z,28.90
2022-08-07T13:42:21.528Z,27.70
2022-08-07T13:45:40.606Z,29.90
2022-08-07T13:48:07.673Z,28.90
2022-08-07T13:50:45.037Z,25.70
2022-08-07T13:53:59.441Z,26.50
2022-08-07T13:56:36.274Z,29.00
2022-08-07T13:59:24.290Z,26.30
2022-08-07T14:02:12.631Z,26.70
2022-08-07T14:04:54.486Z,26.60
2022-08-07T14:07:24.245Z,27.70
2022-08-07T14:10:17.450Z,29.20
2022-08-07T14:12:54.815Z,28.00
2022-08-07T14:15:32.147Z,27.50
2022-08-07T14:18:29.377Z,26.30
2022-08-07T14:22:41.069Z,23.00
2022-08-07T14:24:02.229Z,22.70
2022-08-07T14:26:40.747Z,23.10
2022-08-07T14:30:10.030Z,22.90
2022-08-07T14:32:12.382Z,24.70
2022-08-07T14:34:45.543Z,23.80
2022-08-07T14:37:16.097Z,24.70
2022-08-07T14:40:15.849Z,26.10
2022-08-07T14:42:35.448Z,27.10
2022-08-07T14:45:25.391Z,26.90
2022-08-07T14:51:07.284Z,23.60
2022-08-07T14:56:33.492Z,24.30
2022-08-07T14:59:13.759Z,25.40
2022-08-07T15:01:58.711Z,24.40
2022-08-07T15:04:26.244Z,24.60
2022-08-07T15:10:10.922Z,23.90
2022-08-07T15:12:42.539Z,25.20
2022-08-07T15:15:40.567Z,24.90
2022-08-07T15:18:28.844Z,25.40
2022-08-07T15:21:44.466Z,23.50
2022-08-07T15:27:08.069Z,25.70
2022-08-07T15:30:04.544Z,23.60
2022-08-07T15:32:39.866Z,22.90
2022-08-07T15:36:02.370Z,22.30
2022-08-07T15:38:30.545Z,23.00
2022-08-07T15:41:22.849Z,22.90
2022-08-07T15:43:57.274Z,23.10
2022-08-07T15:46:37.736Z,23.00
2022-08-07T15:49:14.606Z,22.80
2022-08-07T15:54:34.244Z,23.30
2022-08-07T15:57:03.324Z,23.50
2022-08-07T15:59:39.131Z,23.90
2022-08-07T16:02:23.657Z,23.40
2022-08-07T16:05:00.145Z,23.70
2022-08-07T16:08:30.846Z,24.10
2022-08-07T16:10:25.514Z,23.90
2022-08-07T16:13:59.101Z,23.70
2022-08-07T16:16:48.372Z,24.10
2022-08-07T16:19:42.496Z,23.00
2022-08-07T16:22:38.589Z,23.10
2022-08-07T16:25:55.505Z,23.40
2022-08-07T16:29:18.882Z,23.10
2022-08-07T16:31:50.376Z,23.60
2022-08-07T16:34:41.753Z,23.70
2022-08-07T16:38:03.571Z,23.30
2022-08-07T16:40:30.952Z,23.70
2022-08-07T16:43:05.415Z,24.90
2022-08-07T16:47:04.638Z,24.30
2022-08-07T16:50:28.056Z,24.80
2022-08-07T16:52:50.950Z,24.00
2022-08-07T16:55:43.705Z,24.50
2022-08-07T16:59:02.227Z,24.90
2022-08-07T17:01:35.600Z,25.00
2022-08-07T17:04:12.219Z,24.70
2022-08-07T17:07:08.069Z,24.30
2022-08-07T17:10:06.097Z,23.70
2022-08-07T17:12:53.202Z,23.80
2022-08-07T17:15:51.565Z,24.60
2022-08-07T17:18:31.369Z,25.00
2022-08-07T17:20:58.268Z,25.20
2022-08-07T17:23:40.443Z,25.00
2022-08-07T17:26:29.917Z,25.10
2022-08-07T17:28:58.082Z,24.60
2022-08-07T17:32:02.831Z,24.90
2022-08-07T17:35:33.044Z,25.30
2022-08-07T17:38:11.315Z,24.90
2022-08-07T17:40:41.129Z,25.30
2022-08-07T17:43:17.879Z,25.80
2022-08-07T17:45:55.456Z,25.00
2022-08-07T17:48:31.700Z,24.70
2022-08-07T17:51:07.203Z,24.90
2022-08-07T17:54:12.599Z,25.60
2022-08-07T17:56:49.713Z,25.60
2022-08-07T17:59:35.890Z,25.80
2022-08-07T18:02:17.173Z,25.40
2022-08-07T18:05:22.113Z,25.10
2022-08-07T18:08:23.823Z,25.90
2022-08-07T18:12:07.416Z,25.60
2022-08-07T18:14:49.497Z,26.20
2022-08-07T18:18:47.501Z,26.30
2022-08-07T18:21:09.845Z,26.20
2022-08-07T18:23:43.400Z,26.30
2022-08-07T18:26:24.850Z,26.30
2022-08-07T18:30:07.622Z,26.30
2022-08-07T18:32:07.724Z,26.60
2022-08-07T18:35:01.079Z,26.60
2022-08-07T18:38:58.896Z,27.00
2022-08-07T18:41:08.234Z,27.00
2022-08-07T18:43:57.357Z,27.10
2022-08-07T18:46:51.066Z,27.20
2022-08-07T18:50:30.926Z,27.30
2022-08-07T18:52:55.178Z,27.30
2022-08-07T18:55:43.047Z,27.60
2022-08-07T18:58:56.389Z,27.70
2022-08-07T19:02:31.716Z,27.90
2022-08-07T19:04:30.885Z,27.90
2022-08-07T19:07:08.487Z,28.10
2022-08-07T19:09:59.096Z,28.60
2022-08-07T19:12:54.641Z,28.50
2022-08-07T19:17:00.646Z,28.40
2022-08-07T19:19:05.114Z,28.80
2022-08-07T19:21:53.568Z,28.70
2022-08-07T19:24:44.527Z,28.80
2022-08-07T19:28:56.595Z,28.90
2022-08-07T19:30:59.991Z,29.00
2022-08-07T19:33:10.054Z,29.20
2022-08-07T19:35:42.073Z,29.40
2022-08-07T19:38:16.773Z,29.40
2022-08-07T19:40:49.600Z,29.50
2022-08-07T19:43:43.218Z,30.10
2022-08-07T19:46:11.184Z,29.90
2022-08-07T19:48:53.939Z,30.00
2022-08-07T19:51:50.978Z,30.00
2022-08-07T19:54:31.281Z,30.20
2022-08-07T19:58:01.223Z,30.50
2022-08-07T20:00:08.782Z,30.70
2022-08-07T20:02:52.275Z,31.00
2022-08-07T20:05:28.779Z,30.90
2022-08-07T20:08:00.698Z,31.10
2022-08-07T20:10:37.371Z,31.30
2022-08-07T20:13:32.058Z,31.40
2022-08-07T20:16:00.728Z,31.70
2022-08-07T20:18:33.559Z,32.10
2022-08-07T20:21:14.499Z,32.00
2022-08-07T20:24:03.651Z,32.20
2022-08-07T20:26:45.000Z,32.40
2022-08-07T20:29:48.032Z,32.40
2022-08-07T20:32:11.478Z,32.20
2022-08-07T20:34:52.610Z,32.60
2022-08-07T20:37:34.209Z,32.90
2022-08-07T20:40:32.985Z,33.00
2022-08-07T20:42:58.828Z,32.90
2022-08-07T20:45:32.874Z,33.20
2022-08-07T20:48:29.052Z,33.20
2022-08-07T20:51:09.637Z,33.50
2022-08-07T20:54:03.056Z,33.60
2022-08-07T20:56:30.333Z,33.50
2022-08-07T20:59:05.513Z,33.80
2022-08-07T21:01:45.712Z,34.10
2022-08-07T21:04:23.613Z,34.20
2022-08-07T21:06:55.323Z,34.20
2022-08-07T21:09:51.944Z,34.10
2022-08-07T21:12:25.984Z,34.10
2022-08-07T21:15:01.038Z,34.20
2022-08-07T21:18:03.822Z,34.30
2022-08-07T21:20:29.647Z,34.50
2022-08-07T21:23:08.384Z,34.60
2022-08-07T21:26:09.373Z,34.50
2022-08-07T21:28:52.044Z,34.60
2022-08-07T21:32:41.821Z,34.70
2022-08-07T21:34:48.352Z,34.90
2022-08-07T21:37:22.857Z,35.00
2022-08-07T21:39:55.070Z,35.00
2022-08-07T21:42:46.630Z,35.10
2022-08-07T21:46:08.868Z,35.30
2022-08-07T21:49:03.369Z,35.50
2022-08-07T21:51:57.534Z,35.50
2022-08-07T22:19:29.560Z,36.90
2022-08-07T22:22:21.100Z,36.90
2022-08-07T22:25:09.091Z,37.00
2022-08-07T22:28:08.319Z,37.90
2022-08-07T22:31:06.111Z,39.00
2022-08-07T22:33:56.312Z,40.00
2022-08-07T22:37:12.530Z,41.00
2022-08-07T22:40:31.127Z,40.90
2022-08-07T22:43:10.755Z,40.80
2022-08-07T22:46:42.893Z,41.30
2022-08-07T22:49:02.442Z,40.80
2022-08-07T22:52:01.416Z,40.00
2022-08-07T22:54:53.093Z,39.60
2022-08-07T22:57:32.100Z,39.90
2022-08-07T23:00:12.097Z,40.50
2022-08-07T23:03:16.202Z,40.00
2022-08-07T23:06:15.480Z,40.00
2022-08-07T23:10:04.905Z,39.30
2022-08-07T23:12:43.154Z,39.20
2022-08-07T23:16:07.148Z,39.30
2022-08-07T23:19:16.113Z,39.50
2022-08-07T23:21:59.437Z,39.10
2022-08-07T23:24:38.735Z,39.70
2022-08-07T23:27:33.868Z,40.30
2022-08-07T23:30:37.524Z,40.70
2022-08-07T23:34:22.574Z,41.20
2022-08-07T23:36:05.417Z,40.70
2022-08-07T23:39:08.695Z,40.80
2022-08-07T23:42:04.227Z,41.40
2022-08-07T23:44:55.134Z,40.50
2022-08-07T23:47:50.380Z,39.90
2022-08-07T23:50:36.696Z,39.80
2022-08-07T23:53:15.448Z,40.40
2022-08-07T23:55:52.868Z,41.10
2022-08-07T23:58:42.339Z,42.20
